首页
METAR-TAF:

METAR-TAF

机场 :

Emporia-Greensville Regional Airport

恩波里亞, 弗吉尼亚州, 美国

纬度: 36-41-13N, 经度: 077-28-58W, 海拔: 39米

当前天气观测

该预报发布于24分钟前的17:35 UTC
风速12节,风向西北,有时为17节阵风
温度 13°C
湿度 41%
气压 1019 hPa
能見度: 16.1公里
天空无云

METAR: KEMV 201735Z AUTO 32012G17KT 10SM CLR 13/00 A3010 RMK AO2 T01300003

时间: 12:59 (17:59 UTC)


TAF: 丢失

超过4000个机场的气象观测和天气预报(METAR&TAF报告)。

可查询的气象台以黄色和红色小点在地图上表示。

将鼠标移到小点上方,可查看气象台名称。

然后点击查看天气观测和预报。

如需切换地图:点击带黑十字的绿色按钮放大地图;点击带横线的绿色按钮缩小地图;或者点击绿色箭头查看邻近地区的地图。


METAR-TAF: